createdAt,value
2017-05-02T00:00:39.795Z,998.77
2017-05-02T00:01:39.832Z,998.77
2017-05-02T00:02:39.870Z,998.76
2017-05-02T00:03:39.905Z,998.75
2017-05-02T00:04:39.943Z,998.75
2017-05-02T00:05:39.980Z,998.72
2017-05-02T00:06:40.016Z,998.71
2017-05-02T00:07:40.054Z,998.77
2017-05-02T00:08:40.091Z,998.7
2017-05-02T00:09:40.132Z,998.65
2017-05-02T00:10:40.167Z,998.64
2017-05-02T00:11:40.201Z,998.64
2017-05-02T00:12:40.238Z,998.6
2017-05-02T00:13:40.275Z,998.58
2017-05-02T00:14:40.310Z,998.59
2017-05-02T00:15:40.349Z,998.62
2017-05-02T00:16:40.383Z,998.6
2017-05-02T00:17:40.421Z,998.61
2017-05-02T00:18:40.458Z,998.59
2017-05-02T00:19:40.495Z,998.55
2017-05-02T00:20:40.532Z,998.56
2017-05-02T00:21:40.567Z,998.58
2017-05-02T00:22:40.605Z,998.55
2017-05-02T00:23:40.642Z,998.55
2017-05-02T00:24:40.679Z,998.61
2017-05-02T00:25:40.713Z,998.54
2017-05-02T00:26:40.750Z,998.51
2017-05-02T00:27:40.788Z,998.54
2017-05-02T00:28:40.825Z,998.56
2017-05-02T00:29:40.861Z,998.55
2017-05-02T00:30:40.897Z,998.57
2017-05-02T00:31:40.962Z,998.57
2017-05-02T00:32:40.970Z,998.56
2017-05-02T00:33:41.008Z,998.56
2017-05-02T00:34:41.044Z,998.6
2017-05-02T00:35:41.080Z,998.61
2017-05-02T00:36:41.116Z,998.59
2017-05-02T00:37:41.155Z,998.55
2017-05-02T00:38:41.194Z,998.56
2017-05-02T00:39:41.226Z,998.56
2017-05-02T00:40:41.263Z,998.53
2017-05-02T00:41:41.301Z,998.56
2017-05-02T00:42:41.337Z,998.57
2017-05-02T00:43:41.372Z,998.66
2017-05-02T00:44:41.409Z,998.58
2017-05-02T00:45:41.447Z,998.59
2017-05-02T00:46:41.484Z,998.62
2017-05-02T00:47:41.519Z,998.57
2017-05-02T00:48:41.558Z,998.57
2017-05-02T00:49:41.592Z,998.6
2017-05-02T00:50:41.629Z,998.6
2017-05-02T00:51:41.667Z,998.6
2017-05-02T00:52:41.703Z,998.6
2017-05-02T00:53:41.741Z,998.57
2017-05-02T00:54:41.776Z,998.55
2017-05-02T00:55:41.813Z,998.56
2017-05-02T00:56:41.850Z,998.5
2017-05-02T00:57:41.887Z,998.5
2017-05-02T00:58:41.922Z,998.51
2017-05-02T00:59:41.959Z,998.54
2017-05-02T01:00:41.996Z,998.55
2017-05-02T01:01:42.031Z,998.52
2017-05-02T01:02:42.068Z,998.55
2017-05-02T01:03:42.105Z,998.51
2017-05-02T01:04:42.141Z,998.5
2017-05-02T01:05:42.178Z,998.49
2017-05-02T01:06:42.215Z,998.48
2017-05-02T01:07:42.250Z,998.46
2017-05-02T01:08:42.287Z,998.45
2017-05-02T01:09:42.324Z,998.41
2017-05-02T01:10:42.359Z,998.41
2017-05-02T01:11:42.397Z,998.43
2017-05-02T01:12:42.433Z,998.4
2017-05-02T01:13:42.470Z,998.42
2017-05-02T01:14:42.506Z,998.4
2017-05-02T01:15:42.542Z,998.37
2017-05-02T01:16:42.579Z,998.39
2017-05-02T01:17:42.615Z,998.35
2017-05-02T01:18:42.653Z,998.34
2017-05-02T01:19:42.688Z,998.35
2017-05-02T01:20:42.725Z,998.33
2017-05-02T01:21:42.761Z,998.3
2017-05-02T01:22:42.798Z,998.32
2017-05-02T01:23:42.833Z,998.31
2017-05-02T01:24:42.869Z,998.31
2017-05-02T01:25:42.906Z,998.3
2017-05-02T01:26:42.945Z,998.35
2017-05-02T01:27:42.979Z,998.32
2017-05-02T01:28:43.017Z,998.29
2017-05-02T01:29:43.053Z,998.29
2017-05-02T01:30:43.089Z,998.27
2017-05-02T01:31:43.124Z,998.26
2017-05-02T01:32:43.162Z,998.25
2017-05-02T01:33:43.201Z,998.2
2017-05-02T01:34:43.236Z,998.19
2017-05-02T01:35:43.271Z,998.22
2017-05-02T01:36:43.307Z,998.25
2017-05-02T01:37:43.344Z,998.19
2017-05-02T01:38:43.380Z,998.21
2017-05-02T01:39:43.417Z,998.2
2017-05-02T01:40:43.455Z,998.21
2017-05-02T01:41:43.489Z,998.2
2017-05-02T01:42:43.526Z,998.23
2017-05-02T01:43:43.564Z,998.22
2017-05-02T01:44:43.599Z,998.22
2017-05-02T01:45:43.635Z,998.19
2017-05-02T01:46:43.687Z,998.22
2017-05-02T01:47:43.721Z,998.18
2017-05-02T01:48:43.748Z,998.17
2017-05-02T01:49:43.797Z,998.14
2017-05-02T01:50:43.817Z,998.14
2017-05-02T01:51:43.854Z,998.08
2017-05-02T01:52:43.891Z,998.07
2017-05-02T01:53:43.927Z,998.1
2017-05-02T01:54:43.965Z,998.1
2017-05-02T01:55:44.004Z,998.12
2017-05-02T01:56:44.043Z,998.15
2017-05-02T01:57:44.074Z,998.21
2017-05-02T01:58:44.109Z,998.18
2017-05-02T01:59:44.144Z,998.16
2017-05-02T02:00:44.181Z,998.15
2017-05-02T02:01:44.218Z,998.15
2017-05-02T02:02:44.254Z,998.12
2017-05-02T02:03:44.289Z,998.1
2017-05-02T02:04:44.328Z,998.16
2017-05-02T02:05:44.364Z,998.16
2017-05-02T02:06:44.399Z,998.14
2017-05-02T02:07:44.436Z,998.13
2017-05-02T02:08:44.472Z,998.15
2017-05-02T02:09:44.508Z,998.12
2017-05-02T02:10:44.544Z,998.12
2017-05-02T02:11:44.582Z,998.14
2017-05-02T02:12:44.619Z,998.11
2017-05-02T02:13:44.653Z,998.06
2017-05-02T02:14:44.690Z,998.08
2017-05-02T02:15:44.727Z,998.05
2017-05-02T02:16:44.763Z,998.09
2017-05-02T02:17:44.800Z,998.06
2017-05-02T02:18:44.840Z,998.06
2017-05-02T02:19:44.872Z,998.01
2017-05-02T02:20:44.908Z,998.04
2017-05-02T02:21:44.943Z,997.99
2017-05-02T02:22:44.982Z,998.01
2017-05-02T02:23:45.017Z,997.97
2017-05-02T02:24:45.054Z,997.97
2017-05-02T02:25:45.090Z,997.93
2017-05-02T02:26:45.127Z,998.05
2017-05-02T02:27:45.162Z,997.93
2017-05-02T02:28:45.197Z,997.91
2017-05-02T02:29:45.235Z,997.96
2017-05-02T02:30:45.271Z,997.91
2017-05-02T02:31:45.307Z,997.87
2017-05-02T02:32:45.352Z,997.95
2017-05-02T02:33:45.379Z,997.91
2017-05-02T02:34:45.417Z,997.89
2017-05-02T02:35:45.452Z,997.89
2017-05-02T02:36:45.486Z,997.88
2017-05-02T02:37:45.522Z,997.92
2017-05-02T02:38:45.561Z,997.9
2017-05-02T02:39:45.598Z,997.88
2017-05-02T02:40:45.632Z,997.87
2017-05-02T02:41:45.667Z,997.9
2017-05-02T02:42:45.704Z,997.85
2017-05-02T02:43:45.738Z,997.81
2017-05-02T02:44:45.775Z,997.85
2017-05-02T02:45:45.814Z,997.88
2017-05-02T02:46:45.849Z,997.92
2017-05-02T02:47:45.882Z,997.91
2017-05-02T02:48:45.920Z,997.87
2017-05-02T02:49:45.954Z,997.93
2017-05-02T02:50:45.991Z,997.89
2017-05-02T02:51:46.025Z,997.91
2017-05-02T02:52:46.064Z,997.93
2017-05-02T02:53:46.100Z,997.94
2017-05-02T02:54:46.134Z,997.96
2017-05-02T02:55:46.173Z,997.92
2017-05-02T02:56:46.206Z,997.95
2017-05-02T02:57:46.243Z,997.97
2017-05-02T02:58:46.277Z,997.91
2017-05-02T02:59:46.312Z,997.92
2017-05-02T03:00:46.351Z,997.92
2017-05-02T03:01:46.385Z,997.89
2017-05-02T03:02:46.421Z,997.91
2017-05-02T03:03:46.456Z,997.86
2017-05-02T03:04:46.494Z,997.85
2017-05-02T03:05:46.529Z,997.89
2017-05-02T03:06:46.565Z,997.86
2017-05-02T03:07:46.601Z,997.85
2017-05-02T03:08:46.638Z,997.84
2017-05-02T03:09:46.672Z,997.86
2017-05-02T03:10:46.706Z,997.82
2017-05-02T03:11:46.741Z,997.87
2017-05-02T03:12:46.780Z,997.84
2017-05-02T03:13:46.813Z,997.87
2017-05-02T03:14:46.850Z,997.84
2017-05-02T03:15:46.889Z,997.83
2017-05-02T03:16:46.923Z,997.86
2017-05-02T03:17:46.959Z,997.86
2017-05-02T03:18:46.994Z,997.81
2017-05-02T03:19:47.029Z,997.83
2017-05-02T03:20:47.066Z,997.8
2017-05-02T03:21:47.109Z,997.81
2017-05-02T03:22:47.137Z,997.85
2017-05-02T03:23:47.177Z,997.85
2017-05-02T03:24:47.210Z,997.83
2017-05-02T03:25:47.244Z,997.81
2017-05-02T03:26:47.284Z,997.81
2017-05-02T03:27:47.316Z,997.79
2017-05-02T03:28:47.353Z,997.76
2017-05-02T03:29:47.405Z,997.77
2017-05-02T03:30:47.424Z,997.77
2017-05-02T03:31:47.460Z,997.81
2017-05-02T03:32:47.496Z,997.79
2017-05-02T03:33:47.531Z,997.8
2017-05-02T03:34:47.570Z,997.79
2017-05-02T03:35:47.603Z,997.79
2017-05-02T03:36:47.638Z,997.77
2017-05-02T03:37:47.687Z,997.81
2017-05-02T03:38:47.710Z,997.78
2017-05-02T03:39:47.745Z,997.8
2017-05-02T03:40:47.781Z,997.84
2017-05-02T03:41:47.817Z,997.81
2017-05-02T03:42:47.853Z,997.83
2017-05-02T03:43:47.888Z,997.85
2017-05-02T03:44:47.924Z,997.83
2017-05-02T03:45:47.962Z,997.81
2017-05-02T03:46:47.997Z,997.8
2017-05-02T03:47:48.031Z,997.85
2017-05-02T03:48:48.068Z,997.8
2017-05-02T03:49:48.103Z,997.8
2017-05-02T03:50:48.149Z,997.79
2017-05-02T03:51:48.175Z,997.8
2017-05-02T03:52:48.211Z,997.82
2017-05-02T03:53:48.257Z,997.87
2017-05-02T03:54:48.283Z,997.8
2017-05-02T03:55:48.318Z,997.88
2017-05-02T03:56:48.355Z,997.84
2017-05-02T03:57:48.390Z,997.86
2017-05-02T03:58:48.428Z,997.83
2017-05-02T03:59:48.461Z,997.78
2017-05-02T04:00:48.498Z,997.74
2017-05-02T04:01:48.534Z,997.78
2017-05-02T04:02:48.568Z,997.72
2017-05-02T04:03:48.604Z,997.75
2017-05-02T04:04:48.641Z,997.8
2017-05-02T04:05:48.675Z,997.73
2017-05-02T04:06:48.713Z,997.77
2017-05-02T04:07:48.746Z,997.78
2017-05-02T04:08:48.783Z,997.8
2017-05-02T04:09:48.820Z,997.83
2017-05-02T04:10:48.856Z,997.84
2017-05-02T04:11:48.897Z,997.81
2017-05-02T04:12:48.928Z,997.8
2017-05-02T04:13:48.961Z,997.8
2017-05-02T04:14:48.998Z,997.8
2017-05-02T04:15:49.032Z,997.74
2017-05-02T04:16:49.069Z,997.77
2017-05-02T04:17:49.103Z,997.81
2017-05-02T04:18:49.138Z,997.79
2017-05-02T04:19:49.181Z,997.82
2017-05-02T04:20:49.212Z,997.85
2017-05-02T04:21:49.248Z,997.82
2017-05-02T04:22:49.282Z,997.85
2017-05-02T04:23:49.317Z,997.81
2017-05-02T04:24:49.354Z,997.83
2017-05-02T04:25:49.391Z,997.79
2017-05-02T04:26:49.425Z,997.79
2017-05-02T04:27:49.465Z,997.79
2017-05-02T04:28:49.497Z,997.77
2017-05-02T04:29:49.531Z,997.77
2017-05-02T04:30:49.568Z,997.79
2017-05-02T04:31:49.604Z,997.78
2017-05-02T04:32:49.640Z,997.77
2017-05-02T04:33:49.676Z,997.8
2017-05-02T04:34:49.716Z,997.8
2017-05-02T04:35:49.747Z,997.78
2017-05-02T04:36:49.784Z,997.82
2017-05-02T04:37:49.818Z,997.82
2017-05-02T04:38:49.856Z,997.78
2017-05-02T04:39:49.892Z,997.75
2017-05-02T04:40:49.926Z,997.73
2017-05-02T04:41:49.963Z,997.74
2017-05-02T04:42:49.998Z,997.73
2017-05-02T04:43:50.035Z,997.78
2017-05-02T04:44:50.070Z,997.73
2017-05-02T04:45:50.105Z,997.78
2017-05-02T04:46:50.142Z,997.74
2017-05-02T04:47:50.178Z,997.71
2017-05-02T04:48:50.212Z,997.61
2017-05-02T04:49:50.261Z,997.62
2017-05-02T04:50:50.287Z,997.68
2017-05-02T04:51:50.319Z,997.73
2017-05-02T04:52:50.355Z,997.79
2017-05-02T04:53:50.391Z,997.72
2017-05-02T04:54:50.428Z,997.82
2017-05-02T04:55:50.465Z,997.72
2017-05-02T04:56:50.498Z,997.76
2017-05-02T04:57:50.534Z,997.73
2017-05-02T04:58:50.571Z,997.73
2017-05-02T04:59:50.607Z,997.73
2017-05-02T05:00:50.642Z,997.77
2017-05-02T05:01:50.679Z,997.81
2017-05-02T05:02:50.714Z,997.8
2017-05-02T05:03:50.750Z,997.78
2017-05-02T05:04:50.787Z,997.84
2017-05-02T05:05:50.822Z,997.82
2017-05-02T05:06:50.858Z,997.82
2017-05-02T05:07:50.893Z,997.77
2017-05-02T05:08:50.928Z,997.78
2017-05-02T05:09:50.965Z,997.77
2017-05-02T05:10:51.000Z,997.78
2017-05-02T05:11:51.036Z,997.82
2017-05-02T05:12:51.072Z,997.77
2017-05-02T05:13:51.109Z,997.78
2017-05-02T05:14:51.145Z,997.74
2017-05-02T05:15:51.181Z,997.76
2017-05-02T05:16:51.216Z,997.75
2017-05-02T05:17:51.249Z,997.75
2017-05-02T05:18:51.286Z,997.76
2017-05-02T05:19:51.322Z,997.69
2017-05-02T05:20:51.359Z,997.67
2017-05-02T05:21:51.393Z,997.65
2017-05-02T05:22:51.437Z,997.62
2017-05-02T05:23:51.467Z,997.63
2017-05-02T05:24:51.501Z,997.56
2017-05-02T05:25:51.537Z,997.61
2017-05-02T05:26:51.575Z,997.61
2017-05-02T05:27:51.609Z,997.6
2017-05-02T05:28:51.645Z,997.56
2017-05-02T05:29:51.680Z,997.6
2017-05-02T05:30:51.717Z,997.54
2017-05-02T05:31:51.752Z,997.58
2017-05-02T05:32:51.793Z,997.56
2017-05-02T05:33:51.824Z,997.51
2017-05-02T05:34:51.862Z,997.59
2017-05-02T05:35:51.897Z,997.54
2017-05-02T05:36:51.931Z,997.62
2017-05-02T05:37:51.968Z,997.63
2017-05-02T05:38:52.208Z,997.62
2017-05-02T05:39:52.040Z,997.63
2017-05-02T05:40:52.076Z,997.59
2017-05-02T05:41:52.112Z,997.6
2017-05-02T05:42:52.146Z,997.61
2017-05-02T05:43:52.185Z,997.67
2017-05-02T05:44:52.270Z,997.63
2017-05-02T05:45:52.256Z,997.68
2017-05-02T05:46:52.289Z,997.63
2017-05-02T05:47:52.327Z,997.7
2017-05-02T05:48:52.362Z,997.66
2017-05-02T05:49:52.407Z,997.63
2017-05-02T05:50:52.433Z,997.67
2017-05-02T05:51:52.469Z,997.68
2017-05-02T05:52:52.504Z,997.7
2017-05-02T05:53:52.540Z,997.71
2017-05-02T05:54:52.585Z,997.73
2017-05-02T05:55:52.612Z,997.71
2017-05-02T05:56:52.649Z,997.68
2017-05-02T05:57:52.684Z,997.74
2017-05-02T05:58:52.720Z,997.75
2017-05-02T05:59:52.757Z,997.79
2017-05-02T06:00:52.792Z,997.83
2017-05-02T06:01:52.827Z,997.78
2017-05-02T06:02:52.864Z,997.79
2017-05-02T06:03:52.899Z,997.77
2017-05-02T06:04:52.936Z,997.75
2017-05-02T06:05:52.971Z,997.81
2017-05-02T06:06:53.007Z,997.78
2017-05-02T06:07:53.045Z,997.81
2017-05-02T06:08:53.077Z,997.85
2017-05-02T06:09:53.116Z,997.85
2017-05-02T06:10:53.150Z,997.87
2017-05-02T06:11:53.186Z,997.85
2017-05-02T06:12:53.227Z,997.85
2017-05-02T06:13:53.258Z,997.78
2017-05-02T06:14:53.292Z,997.81
2017-05-02T06:15:53.329Z,997.83
2017-05-02T06:16:53.365Z,997.83
2017-05-02T06:17:53.401Z,997.88
2017-05-02T06:18:53.436Z,997.89
2017-05-02T06:19:53.473Z,997.93
2017-05-02T06:20:53.508Z,997.85
2017-05-02T06:21:53.544Z,997.86
2017-05-02T06:22:53.581Z,997.88
2017-05-02T06:23:53.616Z,997.82
2017-05-02T06:24:53.656Z,997.88
2017-05-02T06:25:53.687Z,997.91
2017-05-02T06:26:53.723Z,997.9
2017-05-02T06:27:53.759Z,997.91
2017-05-02T06:28:53.827Z,997.93
2017-05-02T06:29:53.831Z,997.95
2017-05-02T06:30:53.867Z,997.94
2017-05-02T06:31:53.920Z,997.92
2017-05-02T06:32:53.976Z,997.97
2017-05-02T06:33:54.104Z,997.95
2017-05-02T06:34:54.094Z,997.96
2017-05-02T06:35:54.093Z,997.94
2017-05-02T06:36:54.560Z,997.95
2017-05-02T06:37:54.230Z,997.99
2017-05-02T06:38:54.176Z,997.92
2017-05-02T06:39:54.351Z,997.98
2017-05-02T06:40:54.326Z,997.99
2017-05-02T06:41:54.352Z,998
2017-05-02T06:42:54.386Z,998.04
2017-05-02T06:43:54.408Z,998.05
2017-05-02T06:44:54.470Z,998.04
2017-05-02T06:45:54.914Z,998.08
2017-05-02T06:46:54.724Z,998.09
2017-05-02T06:47:54.509Z,998.02
2017-05-02T06:48:54.518Z,998.05
2017-05-02T06:49:54.611Z,998.1
2017-05-02T06:50:54.585Z,998.1
2017-05-02T06:51:54.621Z,998.14
2017-05-02T06:52:54.657Z,998.14
2017-05-02T06:53:54.693Z,998.13
2017-05-02T06:54:54.728Z,998.12
2017-05-02T06:55:54.764Z,998.15
2017-05-02T06:56:54.802Z,998.16
2017-05-02T06:57:54.837Z,998.14
2017-05-02T06:58:54.874Z,998.15
2017-05-02T06:59:54.910Z,998.17
2017-05-02T07:00:54.943Z,998.18
2017-05-02T07:01:54.979Z,998.22
2017-05-02T07:02:55.015Z,998.23
2017-05-02T07:03:55.053Z,998.24
2017-05-02T07:04:55.087Z,998.25
2017-05-02T07:05:55.124Z,998.28
2017-05-02T07:06:55.159Z,998.31
2017-05-02T07:07:55.196Z,998.29
2017-05-02T07:08:55.232Z,998.38
2017-05-02T07:09:55.267Z,998.35
2017-05-02T07:10:55.304Z,998.37
2017-05-02T07:11:55.358Z,998.35
2017-05-02T07:12:55.439Z,998.41
2017-05-02T07:13:55.413Z,998.39
2017-05-02T07:14:55.446Z,998.31
2017-05-02T07:15:55.484Z,998.3
2017-05-02T07:16:55.519Z,998.35
2017-05-02T07:17:55.554Z,998.37
2017-05-02T07:18:55.607Z,998.36
2017-05-02T07:19:55.648Z,998.45
2017-05-02T07:20:55.662Z,998.34
2017-05-02T07:21:55.697Z,998.39
2017-05-02T07:22:55.741Z,998.43
2017-05-02T07:23:55.769Z,998.39
2017-05-02T07:24:55.804Z,998.35
2017-05-02T07:25:55.838Z,998.39
2017-05-02T07:26:55.875Z,998.47
2017-05-02T07:27:55.912Z,998.42
2017-05-02T07:28:55.947Z,998.5
2017-05-02T07:29:55.986Z,998.45
2017-05-02T07:30:56.019Z,998.37
2017-05-02T07:31:56.061Z,998.37
2017-05-02T07:32:56.089Z,998.46
2017-05-02T07:33:56.137Z,998.4
2017-05-02T07:34:56.162Z,998.44
2017-05-02T07:35:56.197Z,998.46
2017-05-02T07:36:56.232Z,998.47
2017-05-02T07:37:56.267Z,998.45
2017-05-02T07:38:56.321Z,998.42
2017-05-02T07:39:56.338Z,998.46
2017-05-02T07:40:56.392Z,998.49
2017-05-02T07:41:56.408Z,998.48
2017-05-02T07:42:56.445Z,998.51
2017-05-02T07:43:56.479Z,998.46
2017-05-02T07:44:56.517Z,998.5
2017-05-02T07:45:56.551Z,998.48
2017-05-02T07:46:56.586Z,998.48
2017-05-02T07:47:56.621Z,998.49
2017-05-02T07:48:56.657Z,998.41
2017-05-02T07:49:56.695Z,998.47
2017-05-02T07:50:56.728Z,998.47
2017-05-02T07:51:56.765Z,998.49
2017-05-02T07:52:56.800Z,998.5
2017-05-02T07:53:56.840Z,998.49
2017-05-02T07:54:56.870Z,998.51
2017-05-02T07:55:56.907Z,998.51
2017-05-02T07:56:56.945Z,998.5
2017-05-02T07:57:56.978Z,998.5
2017-05-02T07:58:57.014Z,998.53
2017-05-02T07:59:57.049Z,998.58
2017-05-02T08:00:57.086Z,998.52
2017-05-02T08:01:57.120Z,998.58
2017-05-02T08:02:57.155Z,998.55
2017-05-02T08:03:57.190Z,998.55
2017-05-02T08:04:57.228Z,998.54
2017-05-02T08:05:57.262Z,998.57
2017-05-02T08:06:57.299Z,998.6
2017-05-02T08:07:57.335Z,998.56
2017-05-02T08:08:57.370Z,998.57
2017-05-02T08:09:57.406Z,998.46
2017-05-02T08:10:57.440Z,998.69
2017-05-02T08:11:57.476Z,998.56
2017-05-02T08:12:57.511Z,998.59
2017-05-02T08:13:57.546Z,998.55
2017-05-02T08:14:57.584Z,998.62
2017-05-02T08:15:57.618Z,998.6
2017-05-02T08:16:57.653Z,998.6
2017-05-02T08:17:57.689Z,998.62
2017-05-02T08:18:57.726Z,998.64
2017-05-02T08:19:57.761Z,998.64
2017-05-02T08:20:57.797Z,998.67
2017-05-02T08:21:57.832Z,998.65
2017-05-02T08:22:57.867Z,998.68
2017-05-02T08:23:57.902Z,998.67
2017-05-02T08:24:57.939Z,998.67
2017-05-02T08:25:57.975Z,998.65
2017-05-02T08:26:58.011Z,998.66
2017-05-02T08:27:58.044Z,998.73
2017-05-02T08:28:58.081Z,998.71
2017-05-02T08:29:58.117Z,998.75
2017-05-02T08:30:58.152Z,998.74
2017-05-02T08:31:58.190Z,998.73
2017-05-02T08:32:58.226Z,998.71
2017-05-02T08:33:58.260Z,998.67
2017-05-02T08:34:58.295Z,998.72
2017-05-02T08:35:58.330Z,998.76
2017-05-02T08:36:58.366Z,998.83
2017-05-02T08:37:58.404Z,998.75
2017-05-02T08:38:58.439Z,998.73
2017-05-02T08:39:58.475Z,998.7
2017-05-02T08:40:58.509Z,998.72
2017-05-02T08:41:58.546Z,998.71
2017-05-02T08:42:58.581Z,998.71
2017-05-02T08:43:58.620Z,998.7
2017-05-02T08:44:58.653Z,998.67
2017-05-02T08:45:58.688Z,998.64
2017-05-02T08:46:58.723Z,998.77
2017-05-02T08:47:58.765Z,998.71
2017-05-02T08:48:58.797Z,998.68
2017-05-02T08:49:58.832Z,998.69
2017-05-02T08:50:58.867Z,998.75
2017-05-02T08:51:58.904Z,998.72
2017-05-02T08:52:58.939Z,998.77
2017-05-02T08:53:58.975Z,998.71
2017-05-02T08:54:59.012Z,998.74
2017-05-02T08:55:59.046Z,998.76
2017-05-02T08:56:59.081Z,998.85
2017-05-02T08:57:59.118Z,998.79
2017-05-02T08:58:59.154Z,998.81
2017-05-02T08:59:59.190Z,998.81
2017-05-02T09:00:59.223Z,998.79
2017-05-02T09:01:59.260Z,998.77
2017-05-02T09:02:59.298Z,998.82
2017-05-02T09:03:59.333Z,998.78
2017-05-02T09:04:59.367Z,998.81
2017-05-02T09:05:59.406Z,998.83
2017-05-02T09:06:59.439Z,998.85
2017-05-02T09:07:59.474Z,998.83
2017-05-02T09:08:59.511Z,998.84
2017-05-02T09:09:59.548Z,998.82
2017-05-02T09:10:59.597Z,998.88
2017-05-02T09:11:59.620Z,998.91
2017-05-02T09:12:59.656Z,998.91
2017-05-02T09:13:59.691Z,998.89
2017-05-02T09:14:59.726Z,998.89
2017-05-02T09:15:59.769Z,998.93
2017-05-02T09:16:59.799Z,998.94
2017-05-02T09:17:59.835Z,998.9
2017-05-02T09:18:59.870Z,999.02
2017-05-02T09:19:59.906Z,998.98
2017-05-02T09:20:59.942Z,998.99
2017-05-02T09:21:59.979Z,999
2017-05-02T09:23:00.014Z,999.01
2017-05-02T09:24:00.050Z,998.96
2017-05-02T09:25:00.089Z,999.01
2017-05-02T09:26:00.122Z,998.97
2017-05-02T09:27:00.159Z,998.95
2017-05-02T09:28:00.195Z,998.97
2017-05-02T09:29:00.232Z,999.02
2017-05-02T09:30:00.267Z,998.99
2017-05-02T09:31:00.305Z,998.98
2017-05-02T09:32:00.344Z,998.99
2017-05-02T09:33:00.377Z,999.03
2017-05-02T09:34:00.412Z,999.01
2017-05-02T09:35:00.449Z,999.07
2017-05-02T09:36:00.484Z,999.06
2017-05-02T09:37:00.521Z,999.09
2017-05-02T09:38:00.556Z,999.07
2017-05-02T09:39:00.600Z,999.14
2017-05-02T09:40:00.630Z,999.13
2017-05-02T09:41:00.674Z,999.14
2017-05-02T09:42:00.701Z,999.19
2017-05-02T09:43:00.738Z,999.2
2017-05-02T09:44:00.774Z,999.15
2017-05-02T09:45:00.811Z,999.21
2017-05-02T09:46:00.844Z,999.28
2017-05-02T09:47:00.882Z,999.29
2017-05-02T09:48:00.917Z,999.3
2017-05-02T09:49:00.953Z,999.28
2017-05-02T09:50:00.990Z,999.34
2017-05-02T09:51:01.029Z,999.35
2017-05-02T09:52:01.062Z,999.33
2017-05-02T09:53:01.099Z,999.34
2017-05-02T09:54:01.134Z,999.35
2017-05-02T09:55:01.171Z,999.37
2017-05-02T09:56:01.208Z,999.38
2017-05-02T09:57:01.243Z,999.39
2017-05-02T09:58:01.281Z,999.32
2017-05-02T09:59:01.315Z,999.34
2017-05-02T10:00:01.352Z,999.39
2017-05-02T10:01:01.391Z,999.45
2017-05-02T10:02:01.426Z,999.4
2017-05-02T10:03:01.463Z,999.68
2017-05-02T10:04:01.499Z,999.46
2017-05-02T10:05:01.535Z,999.46
2017-05-02T10:06:01.573Z,999.54
2017-05-02T10:07:01.610Z,999.61
2017-05-02T10:08:01.648Z,999.5
2017-05-02T10:09:01.684Z,999.5
2017-05-02T10:10:01.722Z,999.53
2017-05-02T10:11:01.759Z,999.67
2017-05-02T10:12:01.799Z,999.63
2017-05-02T10:13:01.837Z,999.71
2017-05-02T10:14:01.874Z,999.8
2017-05-02T10:15:01.915Z,999.69
2017-05-02T10:16:01.953Z,999.83
2017-05-02T10:17:02.002Z,999.87
2017-05-02T10:18:02.047Z,999.83
2017-05-02T10:19:02.076Z,999.86
2017-05-02T10:20:02.120Z,999.77
2017-05-02T10:21:02.160Z,999.71
2017-05-02T10:22:02.204Z,999.64
2017-05-02T10:23:02.246Z,999.54
2017-05-02T10:24:02.292Z,999.61
2017-05-02T10:25:02.330Z,999.69
2017-05-02T10:26:02.373Z,999.67
2017-05-02T10:27:02.416Z,999.68
2017-05-02T10:28:02.456Z,999.7
2017-05-02T10:29:02.513Z,999.8
2017-05-02T10:30:02.565Z,999.75
2017-05-02T10:31:02.580Z,999.76
2017-05-02T10:32:02.620Z,999.75
2017-05-02T10:33:02.661Z,999.87
2017-05-02T10:34:02.701Z,999.8
2017-05-02T10:35:02.757Z,1000.16
2017-05-02T10:36:02.782Z,1000.01
2017-05-02T10:37:02.823Z,1000.02
2017-05-02T10:38:02.865Z,1000
2017-05-02T10:39:02.907Z,1000
2017-05-02T10:40:02.947Z,1000.05
2017-05-02T10:41:02.990Z,999.95
2017-05-02T10:42:03.035Z,999.9
2017-05-02T10:43:03.217Z,999.97
2017-05-02T10:44:03.121Z,999.96
2017-05-02T10:45:03.165Z,999.97
2017-05-02T10:46:03.209Z,999.8
2017-05-02T10:47:03.253Z,999.93
2017-05-02T10:48:03.318Z,1000.04
2017-05-02T10:49:03.341Z,999.89
2017-05-02T10:50:03.383Z,1000.01
2017-05-02T10:51:03.427Z,999.87
2017-05-02T10:52:03.468Z,1000.32
2017-05-02T10:53:03.511Z,999.92
2017-05-02T10:54:03.553Z,999.93
2017-05-02T10:55:03.594Z,1000.04
2017-05-02T10:56:03.636Z,1000.09
2017-05-02T10:57:03.679Z,1000.13
2017-05-02T10:58:03.718Z,999.91
2017-05-02T10:59:03.760Z,999.92
2017-05-02T11:00:03.802Z,999.91
2017-05-02T11:01:03.843Z,1000
2017-05-02T11:02:03.882Z,999.92
2017-05-02T11:03:03.923Z,999.92
2017-05-02T11:04:03.963Z,1000.11
2017-05-02T11:05:04.001Z,999.98
2017-05-02T11:06:04.049Z,999.96
2017-05-02T11:07:04.083Z,1000.05
2017-05-02T11:08:04.123Z,999.93
2017-05-02T11:09:04.163Z,999.97
2017-05-02T11:10:04.205Z,1000.13
2017-05-02T11:11:04.242Z,1000.06
2017-05-02T11:12:04.283Z,1000.1
2017-05-02T11:13:04.323Z,999.88
2017-05-02T11:14:04.364Z,999.79
2017-05-02T11:15:04.430Z,999.75
2017-05-02T11:16:04.448Z,999.84
2017-05-02T11:17:04.489Z,999.86
2017-05-02T11:18:04.530Z,999.91
2017-05-02T11:19:04.570Z,999.79
2017-05-02T11:20:04.612Z,999.84
2017-05-02T11:21:04.653Z,999.93
2017-05-02T11:22:04.691Z,999.89
2017-05-02T11:23:04.731Z,1000.08
2017-05-02T11:24:04.772Z,1000.13
2017-05-02T11:25:04.813Z,999.94
2017-05-02T11:26:04.854Z,999.77
2017-05-02T11:27:04.895Z,999.83
2017-05-02T11:28:04.940Z,999.86
2017-05-02T11:29:04.977Z,999.81
2017-05-02T11:30:05.016Z,999.88
2017-05-02T11:31:05.057Z,999.86
2017-05-02T11:32:05.099Z,1000.01
2017-05-02T11:33:05.137Z,1000.2
2017-05-02T11:34:05.178Z,999.98
2017-05-02T11:35:05.219Z,999.98
2017-05-02T11:36:05.258Z,999.92
2017-05-02T11:37:05.301Z,1000.05
2017-05-02T11:38:05.340Z,1000.21
2017-05-02T11:39:05.379Z,1000.01
2017-05-02T11:40:05.420Z,1000.33
2017-05-02T11:41:05.458Z,1000.06
2017-05-02T11:42:05.501Z,1000.02
2017-05-02T11:43:05.540Z,1000.04
2017-05-02T11:44:05.581Z,999.91
2017-05-02T11:45:05.620Z,999.9
2017-05-02T11:46:05.657Z,999.92
2017-05-02T11:47:05.700Z,1000.11
2017-05-02T11:48:05.739Z,999.96
2017-05-02T11:49:05.777Z,999.88
2017-05-02T11:50:05.836Z,1000.06
2017-05-02T11:51:05.857Z,999.96
2017-05-02T11:52:05.897Z,999.89
2017-05-02T11:53:05.937Z,999.89
2017-05-02T11:54:05.977Z,999.77
2017-05-02T11:55:06.016Z,999.81
2017-05-02T11:56:06.056Z,999.85
2017-05-02T11:57:06.095Z,999.88
2017-05-02T11:58:06.135Z,999.9
2017-05-02T11:59:06.175Z,999.94
2017-05-02T12:00:06.243Z,1000.01
2017-05-02T12:01:06.254Z,999.82
2017-05-02T12:02:06.294Z,999.83
2017-05-02T12:03:06.338Z,999.74
2017-05-02T12:04:06.372Z,999.98
2017-05-02T12:05:06.411Z,999.88
2017-05-02T12:06:06.451Z,999.84
2017-05-02T12:07:06.491Z,999.9
2017-05-02T12:08:06.528Z,999.79
2017-05-02T12:09:06.569Z,1000.03
2017-05-02T12:10:06.608Z,999.86
2017-05-02T12:11:06.648Z,1000.03
2017-05-02T12:12:06.686Z,999.91
2017-05-02T12:13:06.726Z,999.98
2017-05-02T12:14:06.764Z,999.97
2017-05-02T12:15:06.804Z,999.85
2017-05-02T12:16:06.843Z,999.83
2017-05-02T12:17:06.883Z,1000
2017-05-02T12:18:07.112Z,999.85
2017-05-02T12:19:06.961Z,999.81
2017-05-02T12:20:07.002Z,999.92
2017-05-02T12:21:07.042Z,999.94
2017-05-02T12:22:07.078Z,1000.06
2017-05-02T12:23:07.116Z,999.99
2017-05-02T12:24:07.157Z,1000.01
2017-05-02T12:25:07.194Z,1000
2017-05-02T12:26:07.236Z,999.84
2017-05-02T12:27:07.270Z,999.9
2017-05-02T12:28:07.311Z,999.98
2017-05-02T12:29:07.348Z,999.98
2017-05-02T12:30:07.385Z,999.92
2017-05-02T12:31:07.425Z,999.9